sensor_id;sensor_type;location;lat;lon;timestamp;temperature;humidity
7518;DHT22;3800;48.922;9.444;2022-07-24T00:01:39;20.10;99.90
7518;DHT22;3800;48.922;9.444;2022-07-24T00:04:07;20.00;99.90
7518;DHT22;3800;48.922;9.444;2022-07-24T00:06:36;20.10;99.90
7518;DHT22;3800;48.922;9.444;2022-07-24T00:09:05;20.10;99.90
7518;DHT22;3800;48.922;9.444;2022-07-24T00:11:33;20.00;99.90
7518;DHT22;3800;48.922;9.444;2022-07-24T00:14:01;20.00;99.90
7518;DHT22;3800;48.922;9.444;2022-07-24T00:16:29;20.00;99.90
7518;DHT22;3800;48.922;9.444;2022-07-24T00:18:58;19.80;99.90
7518;DHT22;3800;48.922;9.444;2022-07-24T00:21:26;19.70;99.90
7518;DHT22;3800;48.922;9.444;2022-07-24T00:23:54;19.70;99.90
7518;DHT22;3800;48.922;9.444;2022-07-24T00:26:22;19.70;99.90
7518;DHT22;3800;48.922;9.444;2022-07-24T00:28:51;19.70;99.90
7518;DHT22;3800;48.922;9.444;2022-07-24T00:31:20;19.70;99.90
7518;DHT22;3800;48.922;9.444;2022-07-24T00:33:49;19.70;99.90
7518;DHT22;3800;48.922;9.444;2022-07-24T00:36:17;19.70;99.90
7518;DHT22;3800;48.922;9.444;2022-07-24T00:38:45;19.70;99.90
7518;DHT22;3800;48.922;9.444;2022-07-24T00:41:14;19.80;99.90
7518;DHT22;3800;48.922;9.444;2022-07-24T00:46:28;19.80;99.90
7518;DHT22;3800;48.922;9.444;2022-07-24T00:48:56;19.80;99.90
7518;DHT22;3800;48.922;9.444;2022-07-24T00:51:24;19.80;99.90
7518;DHT22;3800;48.922;9.444;2022-07-24T00:53:52;19.80;99.90
7518;DHT22;3800;48.922;9.444;2022-07-24T00:56:20;19.70;99.90
7518;DHT22;3800;48.922;9.444;2022-07-24T00:58:49;19.70;99.90
7518;DHT22;3800;48.922;9.444;2022-07-24T01:01:17;19.60;99.90
7518;DHT22;3800;48.922;9.444;2022-07-24T01:03:45;19.50;99.90
7518;DHT22;3800;48.922;9.444;2022-07-24T01:06:14;19.50;99.90
7518;DHT22;3800;48.922;9.444;2022-07-24T01:08:42;19.40;99.90
7518;DHT22;3800;48.922;9.444;2022-07-24T01:11:10;19.30;99.90
7518;DHT22;3800;48.922;9.444;2022-07-24T01:13:39;19.30;99.90
7518;DHT22;3800;48.922;9.444;2022-07-24T01:16:08;19.10;99.90
7518;DHT22;3800;48.922;9.444;2022-07-24T01:18:36;19.10;99.90
7518;DHT22;3800;48.922;9.444;2022-07-24T01:21:04;19.10;99.90
7518;DHT22;3800;48.922;9.444;2022-07-24T01:23:32;19.00;99.90
7518;DHT22;3800;48.922;9.444;2022-07-24T01:26:00;18.90;99.90
7518;DHT22;3800;48.922;9.444;2022-07-24T01:28:29;18.80;99.90
7518;DHT22;3800;48.922;9.444;2022-07-24T01:30:58;18.70;99.90
7518;DHT22;3800;48.922;9.444;2022-07-24T01:33:26;18.70;99.90
7518;DHT22;3800;48.922;9.444;2022-07-24T01:35:54;18.70;99.90
7518;DHT22;3800;48.922;9.444;2022-07-24T01:38:23;18.60;99.90
7518;DHT22;3800;48.922;9.444;2022-07-24T01:40:51;18.60;99.90
7518;DHT22;3800;48.922;9.444;2022-07-24T01:43:19;18.60;99.90
7518;DHT22;3800;48.922;9.444;2022-07-24T01:45:47;18.60;99.90
7518;DHT22;3800;48.922;9.444;2022-07-24T01:48:16;18.60;99.90
7518;DHT22;3800;48.922;9.444;2022-07-24T01:50:44;18.60;99.90
7518;DHT22;3800;48.922;9.444;2022-07-24T01:53:12;18.70;99.90
7518;DHT22;3800;48.922;9.444;2022-07-24T01:55:41;18.70;99.90
7518;DHT22;3800;48.922;9.444;2022-07-24T01:58:09;18.60;99.90
7518;DHT22;3800;48.922;9.444;2022-07-24T02:00:38;18.60;99.90
7518;DHT22;3800;48.922;9.444;2022-07-24T02:03:06;18.70;99.90
7518;DHT22;3800;48.922;9.444;2022-07-24T02:05:34;18.60;99.90
7518;DHT22;3800;48.922;9.444;2022-07-24T02:08:03;18.70;99.90
7518;DHT22;3800;48.922;9.444;2022-07-24T02:10:31;18.50;99.90
7518;DHT22;3800;48.922;9.444;2022-07-24T02:12:59;18.50;99.90
7518;DHT22;3800;48.922;9.444;2022-07-24T02:15:28;18.50;99.90
7518;DHT22;3800;48.922;9.444;2022-07-24T02:17:57;18.50;99.90
7518;DHT22;3800;48.922;9.444;2022-07-24T02:20:24;18.40;99.90
7518;DHT22;3800;48.922;9.444;2022-07-24T02:22:53;18.30;99.90
7518;DHT22;3800;48.922;9.444;2022-07-24T02:25:21;18.30;99.90
7518;DHT22;3800;48.922;9.444;2022-07-24T02:27:50;18.30;99.90
7518;DHT22;3800;48.922;9.444;2022-07-24T02:30:19;18.10;99.90
7518;DHT22;3800;48.922;9.444;2022-07-24T02:32:47;18.10;99.90
7518;DHT22;3800;48.922;9.444;2022-07-24T02:35:15;18.10;99.90
7518;DHT22;3800;48.922;9.444;2022-07-24T02:37:44;18.10;99.90
7518;DHT22;3800;48.922;9.444;2022-07-24T02:40:12;18.20;99.90
7518;DHT22;3800;48.922;9.444;2022-07-24T02:42:40;18.10;99.90
7518;DHT22;3800;48.922;9.444;2022-07-24T02:45:09;18.10;99.90
7518;DHT22;3800;48.922;9.444;2022-07-24T02:47:45;18.10;99.90
7518;DHT22;3800;48.922;9.444;2022-07-24T02:50:11;18.10;99.90
7518;DHT22;3800;48.922;9.444;2022-07-24T02:52:39;18.10;99.90
7518;DHT22;3800;48.922;9.444;2022-07-24T02:55:08;18.00;99.90
7518;DHT22;3800;48.922;9.444;2022-07-24T02:57:36;18.10;99.90
7518;DHT22;3800;48.922;9.444;2022-07-24T03:00:05;18.00;99.90
7518;DHT22;3800;48.922;9.444;2022-07-24T03:02:33;17.90;99.90
7518;DHT22;3800;48.922;9.444;2022-07-24T03:05:02;17.80;99.90
7518;DHT22;3800;48.922;9.444;2022-07-24T03:07:30;17.80;99.90
7518;DHT22;3800;48.922;9.444;2022-07-24T03:09:59;17.80;99.90
7518;DHT22;3800;48.922;9.444;2022-07-24T03:12:27;17.80;99.90
7518;DHT22;3800;48.922;9.444;2022-07-24T03:14:55;17.80;99.90
7518;DHT22;3800;48.922;9.444;2022-07-24T03:17:24;17.80;99.90
7518;DHT22;3800;48.922;9.444;2022-07-24T03:19:52;17.80;99.90
7518;DHT22;3800;48.922;9.444;2022-07-24T03:22:21;17.80;99.90
7518;DHT22;3800;48.922;9.444;2022-07-24T03:24:50;17.80;99.90
7518;DHT22;3800;48.922;9.444;2022-07-24T03:27:18;17.80;99.90
7518;DHT22;3800;48.922;9.444;2022-07-24T03:29:46;17.80;99.90
7518;DHT22;3800;48.922;9.444;2022-07-24T03:32:15;17.70;99.90
7518;DHT22;3800;48.922;9.444;2022-07-24T03:34:43;17.70;99.90
7518;DHT22;3800;48.922;9.444;2022-07-24T03:37:11;17.60;99.90
7518;DHT22;3800;48.922;9.444;2022-07-24T03:39:39;17.60;99.90
7518;DHT22;3800;48.922;9.444;2022-07-24T03:42:08;17.60;99.90
7518;DHT22;3800;48.922;9.444;2022-07-24T03:44:36;17.50;99.90
7518;DHT22;3800;48.922;9.444;2022-07-24T03:47:04;17.60;99.90
7518;DHT22;3800;48.922;9.444;2022-07-24T03:49:32;17.60;99.90
7518;DHT22;3800;48.922;9.444;2022-07-24T03:52:02;17.60;99.90
7518;DHT22;3800;48.922;9.444;2022-07-24T03:54:30;17.60;99.90
7518;DHT22;3800;48.922;9.444;2022-07-24T03:56:58;17.50;99.90
7518;DHT22;3800;48.922;9.444;2022-07-24T03:59:26;17.50;99.90
7518;DHT22;3800;48.922;9.444;2022-07-24T04:01:55;17.40;99.90
7518;DHT22;3800;48.922;9.444;2022-07-24T04:04:24;17.40;99.90
7518;DHT22;3800;48.922;9.444;2022-07-24T04:06:52;17.40;99.90
7518;DHT22;3800;48.922;9.444;2022-07-24T04:09:20;17.40;99.90
7518;DHT22;3800;48.922;9.444;2022-07-24T04:11:48;17.30;99.90
7518;DHT22;3800;48.922;9.444;2022-07-24T04:14:17;17.30;99.90
7518;DHT22;3800;48.922;9.444;2022-07-24T04:16:45;17.20;99.90
7518;DHT22;3800;48.922;9.444;2022-07-24T04:19:13;17.20;99.90
7518;DHT22;3800;48.922;9.444;2022-07-24T04:21:42;17.10;99.90
7518;DHT22;3800;48.922;9.444;2022-07-24T04:24:10;17.10;99.90
7518;DHT22;3800;48.922;9.444;2022-07-24T04:26:38;17.10;99.90
7518;DHT22;3800;48.922;9.444;2022-07-24T04:29:06;17.20;99.90
7518;DHT22;3800;48.922;9.444;2022-07-24T04:31:35;17.30;99.90
7518;DHT22;3800;48.922;9.444;2022-07-24T04:34:04;17.30;99.90
7518;DHT22;3800;48.922;9.444;2022-07-24T04:36:32;17.30;99.90
7518;DHT22;3800;48.922;9.444;2022-07-24T04:39:00;17.40;99.90
7518;DHT22;3800;48.922;9.444;2022-07-24T04:41:28;17.40;99.90
7518;DHT22;3800;48.922;9.444;2022-07-24T04:43:57;17.50;99.90
7518;DHT22;3800;48.922;9.444;2022-07-24T04:46:26;17.50;99.90
7518;DHT22;3800;48.922;9.444;2022-07-24T04:48:54;17.60;99.90
7518;DHT22;3800;48.922;9.444;2022-07-24T04:51:23;17.60;99.90
7518;DHT22;3800;48.922;9.444;2022-07-24T04:53:51;17.60;99.90
7518;DHT22;3800;48.922;9.444;2022-07-24T04:56:21;17.60;99.90
7518;DHT22;3800;48.922;9.444;2022-07-24T04:58:50;17.70;99.90
7518;DHT22;3800;48.922;9.444;2022-07-24T05:01:18;17.60;99.90
7518;DHT22;3800;48.922;9.444;2022-07-24T05:03:47;17.70;99.90
7518;DHT22;3800;48.922;9.444;2022-07-24T05:06:15;17.70;99.90
7518;DHT22;3800;48.922;9.444;2022-07-24T05:08:43;17.80;99.90
7518;DHT22;3800;48.922;9.444;2022-07-24T05:11:12;17.90;99.90
7518;DHT22;3800;48.922;9.444;2022-07-24T05:13:40;17.90;99.90
7518;DHT22;3800;48.922;9.444;2022-07-24T05:16:08;18.00;99.90
7518;DHT22;3800;48.922;9.444;2022-07-24T05:18:36;18.00;99.90
7518;DHT22;3800;48.922;9.444;2022-07-24T05:21:05;18.00;99.90
7518;DHT22;3800;48.922;9.444;2022-07-24T05:23:33;18.10;99.90
7518;DHT22;3800;48.922;9.444;2022-07-24T05:26:01;18.20;99.90
7518;DHT22;3800;48.922;9.444;2022-07-24T05:28:29;18.20;99.90
7518;DHT22;3800;48.922;9.444;2022-07-24T05:30:59;18.30;99.90
7518;DHT22;3800;48.922;9.444;2022-07-24T05:33:27;18.30;99.90
7518;DHT22;3800;48.922;9.444;2022-07-24T05:35:55;18.40;99.90
7518;DHT22;3800;48.922;9.444;2022-07-24T05:38:23;18.50;99.90
7518;DHT22;3800;48.922;9.444;2022-07-24T05:40:52;18.50;99.90
7518;DHT22;3800;48.922;9.444;2022-07-24T05:43:20;18.50;99.90
7518;DHT22;3800;48.922;9.444;2022-07-24T05:45:48;18.60;99.90
7518;DHT22;3800;48.922;9.444;2022-07-24T05:48:16;18.60;99.90
7518;DHT22;3800;48.922;9.444;2022-07-24T05:50:45;18.70;99.90
7518;DHT22;3800;48.922;9.444;2022-07-24T05:53:14;18.80;99.90
7518;DHT22;3800;48.922;9.444;2022-07-24T05:55:42;18.80;99.90
7518;DHT22;3800;48.922;9.444;2022-07-24T05:58:10;18.90;99.90
7518;DHT22;3800;48.922;9.444;2022-07-24T06:00:38;19.00;99.90
7518;DHT22;3800;48.922;9.444;2022-07-24T06:03:07;19.00;99.90
7518;DHT22;3800;48.922;9.444;2022-07-24T06:05:35;19.10;99.90
7518;DHT22;3800;48.922;9.444;2022-07-24T06:08:03;19.10;99.90
7518;DHT22;3800;48.922;9.444;2022-07-24T06:10:33;19.20;99.90
7518;DHT22;3800;48.922;9.444;2022-07-24T06:13:01;19.20;99.90
7518;DHT22;3800;48.922;9.444;2022-07-24T06:15:29;19.40;99.90
7518;DHT22;3800;48.922;9.444;2022-07-24T06:17:57;19.40;99.90
7518;DHT22;3800;48.922;9.444;2022-07-24T06:20:25;19.50;99.90
7518;DHT22;3800;48.922;9.444;2022-07-24T06:22:54;19.60;99.90
7518;DHT22;3800;48.922;9.444;2022-07-24T06:25:22;19.70;99.90
7518;DHT22;3800;48.922;9.444;2022-07-24T06:27:50;19.90;99.90
7518;DHT22;3800;48.922;9.444;2022-07-24T06:30:21;20.00;99.90
7518;DHT22;3800;48.922;9.444;2022-07-24T06:32:51;20.10;99.90
7518;DHT22;3800;48.922;9.444;2022-07-24T06:35:18;20.30;99.90
7518;DHT22;3800;48.922;9.444;2022-07-24T06:37:46;20.50;99.90
7518;DHT22;3800;48.922;9.444;2022-07-24T06:40:15;20.60;99.90
7518;DHT22;3800;48.922;9.444;2022-07-24T06:42:43;20.80;99.90
7518;DHT22;3800;48.922;9.444;2022-07-24T06:45:11;20.90;99.90
7518;DHT22;3800;48.922;9.444;2022-07-24T06:47:39;21.10;99.90
7518;DHT22;3800;48.922;9.444;2022-07-24T06:50:08;21.20;99.90
7518;DHT22;3800;48.922;9.444;2022-07-24T06:52:36;21.30;99.90
7518;DHT22;3800;48.922;9.444;2022-07-24T06:55:05;21.50;99.90
7518;DHT22;3800;48.922;9.444;2022-07-24T06:57:34;21.60;99.90
7518;DHT22;3800;48.922;9.444;2022-07-24T07:00:03;21.80;99.90
7518;DHT22;3800;48.922;9.444;2022-07-24T07:02:31;22.10;99.90
7518;DHT22;3800;48.922;9.444;2022-07-24T07:05:00;22.10;99.90
7518;DHT22;3800;48.922;9.444;2022-07-24T07:07:28;22.20;99.90
7518;DHT22;3800;48.922;9.444;2022-07-24T07:09:56;22.30;99.90
7518;DHT22;3800;48.922;9.444;2022-07-24T07:12:25;22.40;99.90
7518;DHT22;3800;48.922;9.444;2022-07-24T07:14:53;22.50;99.90
7518;DHT22;3800;48.922;9.444;2022-07-24T07:17:21;22.60;99.90
7518;DHT22;3800;48.922;9.444;2022-07-24T07:19:49;22.70;99.90
7518;DHT22;3800;48.922;9.444;2022-07-24T07:22:18;22.80;99.90
7518;DHT22;3800;48.922;9.444;2022-07-24T07:24:47;23.10;99.90
7518;DHT22;3800;48.922;9.444;2022-07-24T07:27:15;23.00;99.90
7518;DHT22;3800;48.922;9.444;2022-07-24T07:29:43;23.20;99.90
7518;DHT22;3800;48.922;9.444;2022-07-24T07:32:11;23.30;99.90
7518;DHT22;3800;48.922;9.444;2022-07-24T07:34:40;23.50;99.90
7518;DHT22;3800;48.922;9.444;2022-07-24T07:37:09;23.40;99.90
7518;DHT22;3800;48.922;9.444;2022-07-24T07:39:37;23.50;99.90
7518;DHT22;3800;48.922;9.444;2022-07-24T07:42:05;23.60;99.90
7518;DHT22;3800;48.922;9.444;2022-07-24T07:44:33;23.70;99.90
7518;DHT22;3800;48.922;9.444;2022-07-24T07:47:02;23.70;99.90
7518;DHT22;3800;48.922;9.444;2022-07-24T07:49:30;23.80;99.90
7518;DHT22;3800;48.922;9.444;2022-07-24T07:51:58;23.90;99.90
7518;DHT22;3800;48.922;9.444;2022-07-24T07:54:27;24.00;99.90
7518;DHT22;3800;48.922;9.444;2022-07-24T07:56:55;24.10;99.90
7518;DHT22;3800;48.922;9.444;2022-07-24T07:59:23;24.20;99.90
7518;DHT22;3800;48.922;9.444;2022-07-24T08:01:51;24.20;99.90
7518;DHT22;3800;48.922;9.444;2022-07-24T08:04:20;24.10;99.90
7518;DHT22;3800;48.922;9.444;2022-07-24T08:06:48;24.10;99.90
7518;DHT22;3800;48.922;9.444;2022-07-24T08:09:17;24.40;99.90
7518;DHT22;3800;48.922;9.444;2022-07-24T08:11:45;24.40;99.90
7518;DHT22;3800;48.922;9.444;2022-07-24T08:14:13;24.50;99.90
7518;DHT22;3800;48.922;9.444;2022-07-24T08:16:42;24.70;99.90
7518;DHT22;3800;48.922;9.444;2022-07-24T08:19:10;24.80;99.90
7518;DHT22;3800;48.922;9.444;2022-07-24T08:21:38;24.90;99.90
7518;DHT22;3800;48.922;9.444;2022-07-24T08:24:07;24.90;99.90
7518;DHT22;3800;48.922;9.444;2022-07-24T08:26:35;25.10;99.90
7518;DHT22;3800;48.922;9.444;2022-07-24T08:29:04;25.10;99.90
7518;DHT22;3800;48.922;9.444;2022-07-24T08:31:32;25.20;99.90
7518;DHT22;3800;48.922;9.444;2022-07-24T08:34:00;25.30;99.90
7518;DHT22;3800;48.922;9.444;2022-07-24T08:36:29;25.40;99.90
7518;DHT22;3800;48.922;9.444;2022-07-24T08:38:57;25.50;99.90
7518;DHT22;3800;48.922;9.444;2022-07-24T08:41:26;25.60;99.90
7518;DHT22;3800;48.922;9.444;2022-07-24T08:43:54;25.90;99.90
7518;DHT22;3800;48.922;9.444;2022-07-24T08:46:22;25.80;99.90
7518;DHT22;3800;48.922;9.444;2022-07-24T08:48:51;25.90;99.90
7518;DHT22;3800;48.922;9.444;2022-07-24T08:51:20;26.10;99.90
7518;DHT22;3800;48.922;9.444;2022-07-24T08:53:48;26.10;99.90
7518;DHT22;3800;48.922;9.444;2022-07-24T08:56:17;26.20;99.90
7518;DHT22;3800;48.922;9.444;2022-07-24T08:58:45;26.20;99.90
7518;DHT22;3800;48.922;9.444;2022-07-24T09:01:13;26.20;99.90
7518;DHT22;3800;48.922;9.444;2022-07-24T09:03:42;26.30;99.90
7518;DHT22;3800;48.922;9.444;2022-07-24T09:06:11;26.30;99.90
7518;DHT22;3800;48.922;9.444;2022-07-24T09:08:40;26.40;99.90
7518;DHT22;3800;48.922;9.444;2022-07-24T09:11:08;26.50;99.90
7518;DHT22;3800;48.922;9.444;2022-07-24T09:13:36;26.70;99.90
7518;DHT22;3800;48.922;9.444;2022-07-24T09:16:10;26.60;99.90
7518;DHT22;3800;48.922;9.444;2022-07-24T09:18:38;26.70;99.90
7518;DHT22;3800;48.922;9.444;2022-07-24T09:21:12;26.80;99.90
7518;DHT22;3800;48.922;9.444;2022-07-24T09:23:40;26.80;99.90
7518;DHT22;3800;48.922;9.444;2022-07-24T09:26:08;26.90;99.90
7518;DHT22;3800;48.922;9.444;2022-07-24T09:28:48;27.00;99.90
7518;DHT22;3800;48.922;9.444;2022-07-24T09:31:19;27.00;99.90
7518;DHT22;3800;48.922;9.444;2022-07-24T09:33:47;26.90;99.90
7518;DHT22;3800;48.922;9.444;2022-07-24T09:36:16;27.00;99.90
7518;DHT22;3800;48.922;9.444;2022-07-24T09:38:47;27.00;99.90
7518;DHT22;3800;48.922;9.444;2022-07-24T09:41:21;27.10;99.90
7518;DHT22;3800;48.922;9.444;2022-07-24T09:43:57;27.10;99.90
7518;DHT22;3800;48.922;9.444;2022-07-24T09:46:24;27.20;99.90
7518;DHT22;3800;48.922;9.444;2022-07-24T09:48:55;27.30;99.90
7518;DHT22;3800;48.922;9.444;2022-07-24T09:51:23;27.40;99.90
7518;DHT22;3800;48.922;9.444;2022-07-24T09:53:54;27.50;99.90
7518;DHT22;3800;48.922;9.444;2022-07-24T09:56:23;27.60;99.90
7518;DHT22;3800;48.922;9.444;2022-07-24T09:58:52;27.60;99.90
7518;DHT22;3800;48.922;9.444;2022-07-24T10:01:22;27.70;99.90
7518;DHT22;3800;48.922;9.444;2022-07-24T10:03:50;27.70;99.90
7518;DHT22;3800;48.922;9.444;2022-07-24T10:06:19;27.90;99.90
7518;DHT22;3800;48.922;9.444;2022-07-24T10:08:48;28.00;99.90
7518;DHT22;3800;48.922;9.444;2022-07-24T10:11:15;28.00;99.50
7518;DHT22;3800;48.922;9.444;2022-07-24T10:13:44;28.20;99.90
7518;DHT22;3800;48.922;9.444;2022-07-24T10:16:28;28.10;99.90
7518;DHT22;3800;48.922;9.444;2022-07-24T10:18:58;28.10;99.90
7518;DHT22;3800;48.922;9.444;2022-07-24T10:21:29;28.10;99.90
7518;DHT22;3800;48.922;9.444;2022-07-24T10:24:16;28.10;99.90
7518;DHT22;3800;48.922;9.444;2022-07-24T10:26:43;27.80;99.90
7518;DHT22;3800;48.922;9.444;2022-07-24T10:29:13;27.80;99.90
7518;DHT22;3800;48.922;9.444;2022-07-24T10:31:41;27.80;99.90
7518;DHT22;3800;48.922;9.444;2022-07-24T10:34:27;27.90;99.90
7518;DHT22;3800;48.922;9.444;2022-07-24T10:37:31;28.00;99.90
7518;DHT22;3800;48.922;9.444;2022-07-24T10:40:21;28.20;99.80
7518;DHT22;3800;48.922;9.444;2022-07-24T10:43:09;28.30;98.00
7518;DHT22;3800;48.922;9.444;2022-07-24T10:45:41;28.30;98.00
7518;DHT22;3800;48.922;9.444;2022-07-24T10:48:27;28.30;97.90
7518;DHT22;3800;48.922;9.444;2022-07-24T10:51:01;28.40;98.40
7518;DHT22;3800;48.922;9.444;2022-07-24T10:53:44;28.40;98.60
7518;DHT22;3800;48.922;9.444;2022-07-24T10:56:27;28.40;98.60
7518;DHT22;3800;48.922;9.444;2022-07-24T10:58:58;28.30;98.40
7518;DHT22;3800;48.922;9.444;2022-07-24T11:01:41;28.30;98.40
7518;DHT22;3800;48.922;9.444;2022-07-24T11:04:26;28.30;99.10
7518;DHT22;3800;48.922;9.444;2022-07-24T11:06:59;28.30;99.20
7518;DHT22;3800;48.922;9.444;2022-07-24T11:09:27;28.50;97.80
7518;DHT22;3800;48.922;9.444;2022-07-24T11:12:04;28.60;97.80
7518;DHT22;3800;48.922;9.444;2022-07-24T11:14:51;28.70;98.50
7518;DHT22;3800;48.922;9.444;2022-07-24T11:20:03;28.90;98.00
7518;DHT22;3800;48.922;9.444;2022-07-24T11:22:41;28.90;96.80
7518;DHT22;3800;48.922;9.444;2022-07-24T11:25:19;29.00;97.50
7518;DHT22;3800;48.922;9.444;2022-07-24T11:27:56;29.20;96.10
7518;DHT22;3800;48.922;9.444;2022-07-24T11:30:26;29.30;97.00
7518;DHT22;3800;48.922;9.444;2022-07-24T11:32:54;29.40;97.50
7518;DHT22;3800;48.922;9.444;2022-07-24T11:35:28;29.40;96.90
7518;DHT22;3800;48.922;9.444;2022-07-24T11:37:56;29.50;96.50
7518;DHT22;3800;48.922;9.444;2022-07-24T11:40:24;29.50;97.30
7518;DHT22;3800;48.922;9.444;2022-07-24T11:42:58;29.60;96.30
7518;DHT22;3800;48.922;9.444;2022-07-24T11:45:25;29.40;96.90
7518;DHT22;3800;48.922;9.444;2022-07-24T11:47:53;29.30;96.50
7518;DHT22;3800;48.922;9.444;2022-07-24T11:50:22;29.20;96.10
7518;DHT22;3800;48.922;9.444;2022-07-24T11:52:50;29.10;96.70
7518;DHT22;3800;48.922;9.444;2022-07-24T11:55:19;29.00;96.80
7518;DHT22;3800;48.922;9.444;2022-07-24T11:57:48;29.10;96.70
7518;DHT22;3800;48.922;9.444;2022-07-24T12:00:19;29.10;96.20
7518;DHT22;3800;48.922;9.444;2022-07-24T12:02:47;29.00;96.80
7518;DHT22;3800;48.922;9.444;2022-07-24T12:05:23;29.00;96.80
7518;DHT22;3800;48.922;9.444;2022-07-24T12:07:49;28.90;97.00
7518;DHT22;3800;48.922;9.444;2022-07-24T12:10:19;29.00;96.40
7518;DHT22;3800;48.922;9.444;2022-07-24T12:12:52;29.00;96.40
7518;DHT22;3800;48.922;9.444;2022-07-24T12:15:18;29.00;95.80
7518;DHT22;3800;48.922;9.444;2022-07-24T12:18:07;28.90;96.10
7518;DHT22;3800;48.922;9.444;2022-07-24T12:20:38;28.90;95.90
7518;DHT22;3800;48.922;9.444;2022-07-24T12:23:07;28.80;95.90
7518;DHT22;3800;48.922;9.444;2022-07-24T12:25:34;28.90;96.90
7518;DHT22;3800;48.922;9.444;2022-07-24T12:28:05;28.90;96.20
7518;DHT22;3800;48.922;9.444;2022-07-24T12:30:34;28.90;95.70
7518;DHT22;3800;48.922;9.444;2022-07-24T12:33:05;28.90;96.00
7518;DHT22;3800;48.922;9.444;2022-07-24T12:35:35;29.00;95.80
7518;DHT22;3800;48.922;9.444;2022-07-24T12:38:02;29.00;95.60
7518;DHT22;3800;48.922;9.444;2022-07-24T12:40:32;29.00;95.90
7518;DHT22;3800;48.922;9.444;2022-07-24T12:43:07;29.00;95.80
7518;DHT22;3800;48.922;9.444;2022-07-24T12:45:34;29.20;96.10
7518;DHT22;3800;48.922;9.444;2022-07-24T12:48:07;29.30;96.10
7518;DHT22;3800;48.922;9.444;2022-07-24T12:50:57;29.30;95.30
7518;DHT22;3800;48.922;9.444;2022-07-24T12:53:26;29.40;96.10
7518;DHT22;3800;48.922;9.444;2022-07-24T12:56:04;29.60;95.80
7518;DHT22;3800;48.922;9.444;2022-07-24T12:59:02;29.70;96.00
7518;DHT22;3800;48.922;9.444;2022-07-24T13:04:10;30.00;95.00
7518;DHT22;3800;48.922;9.444;2022-07-24T13:06:40;30.00;95.00
7518;DHT22;3800;48.922;9.444;2022-07-24T13:09:08;29.90;94.50
7518;DHT22;3800;48.922;9.444;2022-07-24T13:11:36;29.90;94.50
7518;DHT22;3800;48.922;9.444;2022-07-24T13:14:05;29.90;94.80
7518;DHT22;3800;48.922;9.444;2022-07-24T13:16:34;30.10;95.10
7518;DHT22;3800;48.922;9.444;2022-07-24T13:19:02;30.00;95.10
7518;DHT22;3800;48.922;9.444;2022-07-24T13:21:30;30.20;95.60
7518;DHT22;3800;48.922;9.444;2022-07-24T13:23:58;30.30;94.30
7518;DHT22;3800;48.922;9.444;2022-07-24T13:26:27;30.60;94.70
7518;DHT22;3800;48.922;9.444;2022-07-24T13:28:55;30.60;94.50
7518;DHT22;3800;48.922;9.444;2022-07-24T13:31:24;30.80;94.20
7518;DHT22;3800;48.922;9.444;2022-07-24T13:33:53;30.80;94.30
7518;DHT22;3800;48.922;9.444;2022-07-24T13:36:21;30.90;94.50
7518;DHT22;3800;48.922;9.444;2022-07-24T13:38:49;31.00;93.90
7518;DHT22;3800;48.922;9.444;2022-07-24T13:41:17;31.10;93.20
7518;DHT22;3800;48.922;9.444;2022-07-24T13:43:46;31.10;93.50
7518;DHT22;3800;48.922;9.444;2022-07-24T13:46:14;31.10;93.30
7518;DHT22;3800;48.922;9.444;2022-07-24T13:48:43;31.20;93.20
7518;DHT22;3800;48.922;9.444;2022-07-24T13:51:11;31.10;93.20
7518;DHT22;3800;48.922;9.444;2022-07-24T13:53:39;31.10;93.20
7518;DHT22;3800;48.922;9.444;2022-07-24T13:56:08;31.10;93.40
7518;DHT22;3800;48.922;9.444;2022-07-24T13:58:36;31.10;93.10
7518;DHT22;3800;48.922;9.444;2022-07-24T14:01:05;31.10;93.40
7518;DHT22;3800;48.922;9.444;2022-07-24T14:03:34;31.00;93.30
7518;DHT22;3800;48.922;9.444;2022-07-24T14:06:02;31.00;93.20
7518;DHT22;3800;48.922;9.444;2022-07-24T14:08:30;31.00;92.70
7518;DHT22;3800;48.922;9.444;2022-07-24T14:10:58;31.00;94.00
7518;DHT22;3800;48.922;9.444;2022-07-24T14:13:27;31.00;94.10
7518;DHT22;3800;48.922;9.444;2022-07-24T14:15:56;31.10;94.40
7518;DHT22;3800;48.922;9.444;2022-07-24T14:18:24;31.10;94.20
7518;DHT22;3800;48.922;9.444;2022-07-24T14:20:53;31.10;93.00
7518;DHT22;3800;48.922;9.444;2022-07-24T14:23:21;31.00;93.00
7518;DHT22;3800;48.922;9.444;2022-07-24T14:25:50;31.00;93.50
7518;DHT22;3800;48.922;9.444;2022-07-24T14:28:19;31.20;93.20
7518;DHT22;3800;48.922;9.444;2022-07-24T14:30:47;31.10;93.20
7518;DHT22;3800;48.922;9.444;2022-07-24T14:33:16;31.20;93.00
7518;DHT22;3800;48.922;9.444;2022-07-24T14:35:44;31.20;92.90
7518;DHT22;3800;48.922;9.444;2022-07-24T14:38:12;31.10;92.60
7518;DHT22;3800;48.922;9.444;2022-07-24T14:40:41;31.20;93.90
7518;DHT22;3800;48.922;9.444;2022-07-24T14:43:10;31.10;93.90
7518;DHT22;3800;48.922;9.444;2022-07-24T14:45:38;31.10;92.60
7518;DHT22;3800;48.922;9.444;2022-07-24T14:48:06;31.10;93.90
7518;DHT22;3800;48.922;9.444;2022-07-24T14:50:35;31.10;92.70
7518;DHT22;3800;48.922;9.444;2022-07-24T14:53:04;31.10;92.70
7518;DHT22;3800;48.922;9.444;2022-07-24T14:55:32;31.10;92.60
7518;DHT22;3800;48.922;9.444;2022-07-24T14:58:01;31.10;92.00
7518;DHT22;3800;48.922;9.444;2022-07-24T15:00:29;31.00;91.90
7518;DHT22;3800;48.922;9.444;2022-07-24T15:02:57;31.00;92.70
7518;DHT22;3800;48.922;9.444;2022-07-24T15:05:26;31.00;93.20
7518;DHT22;3800;48.922;9.444;2022-07-24T15:07:54;31.00;93.30
7518;DHT22;3800;48.922;9.444;2022-07-24T15:10:22;31.10;92.80
7518;DHT22;3800;48.922;9.444;2022-07-24T15:12:51;31.10;93.50
7518;DHT22;3800;48.922;9.444;2022-07-24T15:15:19;31.10;93.30
7518;DHT22;3800;48.922;9.444;2022-07-24T15:17:48;31.10;93.90
7518;DHT22;3800;48.922;9.444;2022-07-24T15:20:16;31.10;93.90
7518;DHT22;3800;48.922;9.444;2022-07-24T15:22:44;31.10;92.20
7518;DHT22;3800;48.922;9.444;2022-07-24T15:25:13;31.00;92.50
7518;DHT22;3800;48.922;9.444;2022-07-24T15:27:42;31.00;92.50
7518;DHT22;3800;48.922;9.444;2022-07-24T15:30:10;30.90;93.20
7518;DHT22;3800;48.922;9.444;2022-07-24T15:32:39;30.90;93.80
7518;DHT22;3800;48.922;9.444;2022-07-24T15:35:07;31.00;93.10
7518;DHT22;3800;48.922;9.444;2022-07-24T15:37:36;30.90;91.90
7518;DHT22;3800;48.922;9.444;2022-07-24T15:40:04;30.80;93.00
7518;DHT22;3800;48.922;9.444;2022-07-24T15:42:33;30.90;93.30
7518;DHT22;3800;48.922;9.444;2022-07-24T15:45:01;30.90;93.20
7518;DHT22;3800;48.922;9.444;2022-07-24T15:47:29;30.80;93.80
7518;DHT22;3800;48.922;9.444;2022-07-24T15:49:57;30.90;92.40
7518;DHT22;3800;48.922;9.444;2022-07-24T15:52:26;30.80;93.40
7518;DHT22;3800;48.922;9.444;2022-07-24T15:54:55;30.70;93.40
7518;DHT22;3800;48.922;9.444;2022-07-24T15:57:23;30.70;92.50
7518;DHT22;3800;48.922;9.444;2022-07-24T15:59:52;30.60;93.00
7518;DHT22;3800;48.922;9.444;2022-07-24T16:02:20;30.60;93.10
7518;DHT22;3800;48.922;9.444;2022-07-24T16:04:49;30.50;93.70
7518;DHT22;3800;48.922;9.444;2022-07-24T16:07:17;30.50;93.70
7518;DHT22;3800;48.922;9.444;2022-07-24T16:09:48;30.50;93.10
7518;DHT22;3800;48.922;9.444;2022-07-24T16:12:17;30.50;93.10
7518;DHT22;3800;48.922;9.444;2022-07-24T16:14:45;30.60;92.70
7518;DHT22;3800;48.922;9.444;2022-07-24T16:17:13;30.60;92.90
7518;DHT22;3800;48.922;9.444;2022-07-24T16:19:41;30.60;93.30
7518;DHT22;3800;48.922;9.444;2022-07-24T16:22:09;30.60;93.40
7518;DHT22;3800;48.922;9.444;2022-07-24T16:24:38;30.50;92.00